createdAt,value
2018-04-27T00:02:04.499Z,101153.18
2018-04-27T00:04:33.669Z,101153.56
2018-04-27T00:07:02.137Z,101152.73
2018-04-27T00:09:30.789Z,101157.00
2018-04-27T00:11:59.138Z,101160.04
2018-04-27T00:14:27.805Z,101155.31
2018-04-27T00:16:56.473Z,101162.48
2018-04-27T00:19:24.863Z,101162.87
2018-04-27T00:21:53.211Z,101158.67
2018-04-27T00:24:21.876Z,101159.59
2018-04-27T00:26:50.368Z,101156.13
2018-04-27T00:29:18.845Z,101149.76
2018-04-27T00:31:47.739Z,101160.75
2018-04-27T00:34:16.250Z,101150.07
2018-04-27T00:36:45.414Z,101160.11
2018-04-27T00:39:15.157Z,101157.48
2018-04-27T00:41:43.744Z,101164.22
2018-04-27T00:44:12.127Z,101154.55
2018-04-27T00:46:40.587Z,101163.93
2018-04-27T00:49:09.000Z,101162.73
2018-04-27T00:51:38.162Z,101165.70
2018-04-27T00:54:06.773Z,101168.70
2018-04-27T00:56:35.172Z,101171.33
2018-04-27T00:59:03.570Z,101174.30
2018-04-27T01:01:32.162Z,101170.14
2018-04-27T01:04:00.733Z,101176.50
2018-04-27T01:06:29.128Z,101179.57
2018-04-27T01:08:57.459Z,101182.13
2018-04-27T01:11:25.845Z,101191.86
2018-04-27T01:13:54.179Z,101184.70
2018-04-27T01:16:22.892Z,101184.26
2018-04-27T01:18:51.751Z,101192.38
2018-04-27T01:21:20.493Z,101188.59
2018-04-27T01:23:48.919Z,101189.11
2018-04-27T01:26:17.377Z,101195.05
2018-04-27T01:28:45.976Z,101193.84
2018-04-27T01:31:14.347Z,101189.66
2018-04-27T01:33:42.683Z,101198.19
2018-04-27T01:36:12.053Z,101202.80
2018-04-27T01:38:40.398Z,101199.77
2018-04-27T01:41:10.119Z,101198.05
2018-04-27T01:43:38.522Z,101196.81
2018-04-27T01:46:06.896Z,101206.97
2018-04-27T01:48:35.939Z,101205.34
2018-04-27T01:51:05.667Z,101209.61
2018-04-27T01:53:34.141Z,101212.98
2018-04-27T01:56:02.686Z,101211.80
2018-04-27T01:58:31.036Z,101212.23
2018-04-27T02:00:59.412Z,101209.27
2018-04-27T02:03:27.809Z,101216.47
2018-04-27T02:05:56.928Z,101210.97
2018-04-27T02:08:25.272Z,101213.48
2018-04-27T02:10:53.629Z,101212.73
2018-04-27T02:13:21.977Z,101220.78
2018-04-27T02:15:50.320Z,101223.30
2018-04-27T02:18:19.775Z,101217.82
2018-04-27T02:20:48.709Z,101216.14
2018-04-27T02:23:17.348Z,101227.52
2018-04-27T02:25:45.898Z,101220.36
2018-04-27T02:28:14.681Z,101218.61
2018-04-27T02:30:43.548Z,101222.83
2018-04-27T02:33:11.955Z,101224.39
2018-04-27T02:35:40.301Z,101225.14
2018-04-27T02:38:08.652Z,101216.20
2018-04-27T02:40:37.005Z,101225.86
2018-04-27T02:43:05.503Z,101224.48
2018-04-27T02:45:33.993Z,101217.20
2018-04-27T02:48:02.771Z,101214.22
2018-04-27T02:50:31.284Z,101216.33
2018-04-27T02:52:59.653Z,101211.69
2018-04-27T02:55:28.007Z,101216.00
2018-04-27T02:57:56.879Z,101220.74
2018-04-27T03:00:25.671Z,101208.06
2018-04-27T03:02:55.085Z,101216.89
2018-04-27T03:05:23.428Z,101215.25
2018-04-27T03:07:51.817Z,101214.47
2018-04-27T03:10:20.173Z,101221.64
2018-04-27T03:12:48.526Z,101213.29
2018-04-27T03:15:17.857Z,101219.61
2018-04-27T03:17:46.389Z,101228.88
2018-04-27T03:20:15.068Z,101231.80
2018-04-27T03:22:43.408Z,101231.02
2018-04-27T03:25:12.695Z,101235.66
2018-04-27T03:27:41.235Z,101241.13
2018-04-27T03:30:09.677Z,101241.60
2018-04-27T03:32:38.878Z,101242.87
2018-04-27T03:35:07.262Z,101238.62
2018-04-27T03:37:35.606Z,101238.19
2018-04-27T03:40:04.722Z,101238.50
2018-04-27T03:42:33.406Z,101243.92
2018-04-27T03:45:01.915Z,101248.14
2018-04-27T03:47:30.267Z,101252.34
2018-04-27T03:49:59.041Z,101248.95
2018-04-27T03:52:28.216Z,101245.69
2018-04-27T03:54:56.571Z,101258.81
2018-04-27T03:57:25.078Z,101259.24
2018-04-27T04:00:05.483Z,101258.41
2018-04-27T04:02:45.657Z,101266.38
2018-04-27T04:05:25.939Z,101265.45
2018-04-27T04:07:55.016Z,101272.12
2018-04-27T04:10:24.314Z,101276.23
2018-04-27T04:12:53.121Z,101278.23
2018-04-27T04:15:21.723Z,101273.08
2018-04-27T04:17:50.171Z,101279.72
2018-04-27T04:20:18.644Z,101282.15
2018-04-27T04:22:47.285Z,101281.68
2018-04-27T04:25:15.636Z,101287.59
2018-04-27T04:27:43.981Z,101277.80
2018-04-27T04:30:12.339Z,101283.25
2018-04-27T04:32:40.706Z,101290.44
2018-04-27T04:35:09.565Z,101289.95
2018-04-27T04:37:38.032Z,101290.79
2018-04-27T04:40:06.383Z,101303.80
2018-04-27T04:42:34.727Z,101302.05
2018-04-27T04:45:03.172Z,101301.53
2018-04-27T04:47:31.468Z,101297.48
2018-04-27T04:49:59.837Z,101302.34
2018-04-27T04:52:28.224Z,101309.83
2018-04-27T04:54:56.560Z,101317.44
2018-04-27T04:57:25.136Z,101316.86
2018-04-27T04:59:53.514Z,101319.92
2018-04-27T05:02:21.870Z,101322.95
2018-04-27T05:04:50.216Z,101329.30
2018-04-27T05:07:18.668Z,101321.48
2018-04-27T05:09:47.332Z,101321.60
2018-04-27T05:12:15.676Z,101325.28
2018-04-27T05:14:44.023Z,101323.15
2018-04-27T05:17:12.444Z,101331.05
2018-04-27T05:19:41.553Z,101334.62
2018-04-27T05:22:09.995Z,101335.05
2018-04-27T05:24:38.733Z,101330.82
2018-04-27T05:27:07.530Z,101336.31
2018-04-27T05:29:35.891Z,101333.96
2018-04-27T05:32:04.301Z,101339.52
2018-04-27T05:34:32.647Z,101332.11
2018-04-27T05:37:01.261Z,101337.55
2018-04-27T05:39:29.679Z,101350.98
2018-04-27T05:41:58.398Z,101355.98
2018-04-27T05:44:27.191Z,101355.83
2018-04-27T05:46:56.019Z,101356.02
2018-04-27T05:49:24.717Z,101360.02
2018-04-27T05:51:53.101Z,101365.28
2018-04-27T05:54:21.463Z,101364.23
2018-04-27T05:56:50.785Z,101370.57
2018-04-27T05:59:19.459Z,101362.20
2018-04-27T06:01:47.817Z,101370.59
2018-04-27T06:04:16.179Z,101367.98
2018-04-27T06:06:44.539Z,101367.25
2018-04-27T06:09:13.477Z,101368.45
2018-04-27T06:11:41.842Z,101380.76
2018-04-27T06:14:10.217Z,101367.88
2018-04-27T06:16:38.561Z,101381.37
2018-04-27T06:19:06.913Z,101384.17
2018-04-27T06:21:35.420Z,101376.67
2018-04-27T06:24:04.232Z,101393.22
2018-04-27T06:26:32.604Z,101386.54
2018-04-27T06:29:00.968Z,101385.73
2018-04-27T06:31:29.694Z,101387.98
2018-04-27T06:33:58.596Z,101391.08
2018-04-27T06:36:26.972Z,101389.59
2018-04-27T06:38:55.369Z,101387.59
2018-04-27T06:41:23.844Z,101392.22
2018-04-27T06:43:52.192Z,101412.29
2018-04-27T06:46:20.668Z,101393.45
2018-04-27T06:48:49.400Z,101389.92
2018-04-27T06:51:17.759Z,101401.29
2018-04-27T06:53:46.554Z,101410.73
2018-04-27T06:56:15.200Z,101411.89
2018-04-27T06:58:44.034Z,101414.41
2018-04-27T07:01:12.379Z,101417.33
2018-04-27T07:03:40.733Z,101419.80
2018-04-27T07:06:09.099Z,101427.88
2018-04-27T07:08:37.464Z,101427.14
2018-04-27T07:11:05.827Z,101418.91
2018-04-27T07:13:34.177Z,101426.11
2018-04-27T07:16:03.008Z,101430.52
2018-04-27T07:18:31.428Z,101428.15
2018-04-27T07:21:00.172Z,101432.08
2018-04-27T07:23:28.559Z,101434.64
2018-04-27T07:25:57.070Z,101432.04
2018-04-27T07:28:25.420Z,101439.06
2018-04-27T07:30:54.209Z,101450.59
2018-04-27T07:33:22.569Z,101438.83
2018-04-27T07:35:51.599Z,101437.05
2018-04-27T07:38:19.995Z,101440.70
2018-04-27T07:40:48.449Z,101439.86
2018-04-27T07:43:16.820Z,101451.40
2018-04-27T07:45:45.183Z,101447.70
2018-04-27T07:48:14.410Z,101459.12
2018-04-27T07:50:42.823Z,101471.21
2018-04-27T07:53:11.185Z,101458.71
2018-04-27T07:55:39.551Z,101465.70
2018-04-27T07:58:08.278Z,101458.58
2018-04-27T08:00:36.714Z,101466.27
2018-04-27T08:03:05.170Z,101457.02
2018-04-27T08:05:33.897Z,101461.88
2018-04-27T08:08:03.088Z,101460.50
2018-04-27T08:10:31.485Z,101469.58
2018-04-27T08:12:59.888Z,101480.73
2018-04-27T08:15:28.236Z,101477.72
2018-04-27T08:17:56.713Z,101468.70
2018-04-27T08:20:33.758Z,101467.68
2018-04-27T08:23:02.167Z,101466.22
2018-04-27T08:25:34.388Z,101473.22
2018-04-27T08:28:02.835Z,101470.00
2018-04-27T08:30:31.211Z,101463.55
2018-04-27T08:32:59.568Z,101496.27
2018-04-27T08:35:27.931Z,101472.59
2018-04-27T08:37:56.280Z,101483.72
2018-04-27T08:40:24.687Z,101506.24
2018-04-27T08:42:53.066Z,101500.02
2018-04-27T08:45:21.905Z,101486.36
2018-04-27T08:47:50.590Z,101488.30
2018-04-27T08:50:19.019Z,101484.95
2018-04-27T08:52:47.585Z,101473.36
2018-04-27T08:55:15.957Z,101483.73
2018-04-27T08:57:44.320Z,101475.08
2018-04-27T09:00:13.213Z,101475.80
2018-04-27T09:02:41.655Z,101484.89
2018-04-27T09:05:10.845Z,101493.86
2018-04-27T09:07:40.171Z,101492.88
2018-04-27T09:10:08.525Z,101484.44
2018-04-27T09:12:36.883Z,101482.34
2018-04-27T09:15:06.325Z,101496.98
2018-04-27T09:17:34.749Z,101491.41
2018-04-27T09:20:03.048Z,101490.67
2018-04-27T09:22:31.408Z,101487.35
2018-04-27T09:24:59.806Z,101483.61
2018-04-27T09:27:28.165Z,101491.05
2018-04-27T09:29:56.787Z,101489.36
2018-04-27T09:32:25.153Z,101490.80
2018-04-27T09:34:53.519Z,101487.34
2018-04-27T09:37:21.872Z,101490.04
2018-04-27T09:39:50.611Z,101491.41
2018-04-27T09:42:18.967Z,101487.86
2018-04-27T09:44:47.332Z,101481.77
2018-04-27T09:47:15.948Z,101481.20
2018-04-27T09:49:45.934Z,101481.59
2018-04-27T09:52:14.335Z,101488.66
2018-04-27T09:54:45.515Z,101496.19
2018-04-27T09:57:13.888Z,101483.14
2018-04-27T09:59:42.314Z,101482.50
2018-04-27T10:02:10.939Z,101483.82
2018-04-27T10:04:39.297Z,101488.49
2018-04-27T10:07:07.645Z,101493.45
2018-04-27T10:09:36.081Z,101487.48
2018-04-27T10:12:04.471Z,101486.36
2018-04-27T10:14:33.186Z,101487.69
2018-04-27T10:17:01.563Z,101485.70
2018-04-27T10:19:31.906Z,101488.61
2018-04-27T10:22:00.274Z,101491.59
2018-04-27T10:24:28.868Z,101492.84
2018-04-27T10:26:58.439Z,101482.97
2018-04-27T10:29:26.801Z,101486.41
2018-04-27T10:31:55.783Z,101481.32
2018-04-27T10:34:24.675Z,101485.95
2018-04-27T10:36:53.036Z,101484.68
2018-04-27T10:39:21.457Z,101489.55
2018-04-27T10:41:49.858Z,101488.20
2018-04-27T10:44:18.429Z,101488.62
2018-04-27T10:46:47.225Z,101477.74
2018-04-27T10:49:15.593Z,101476.47
2018-04-27T10:51:44.463Z,101477.05
2018-04-27T10:54:13.716Z,101474.79
2018-04-27T10:56:42.692Z,101477.27
2018-04-27T10:59:11.045Z,101472.16
2018-04-27T11:01:39.457Z,101468.20
2018-04-27T11:04:07.824Z,101467.65
2018-04-27T11:06:36.205Z,101471.12
2018-04-27T11:09:04.907Z,101473.13
2018-04-27T11:11:33.288Z,101465.14
2018-04-27T11:14:01.736Z,101470.79
2018-04-27T11:16:30.222Z,101473.99
2018-04-27T11:18:58.777Z,101474.18
2018-04-27T11:21:28.204Z,101480.58
2018-04-27T11:23:56.553Z,101483.44
2018-04-27T11:26:25.361Z,101485.58
2018-04-27T11:28:53.944Z,101493.54
2018-04-27T11:31:22.576Z,101491.41
2018-04-27T11:33:51.008Z,101485.47
2018-04-27T11:36:19.678Z,101482.13
2018-04-27T11:38:48.024Z,101484.52
2018-04-27T11:41:17.159Z,101487.63
2018-04-27T11:43:45.519Z,101496.34
2018-04-27T11:46:13.905Z,101481.84
2018-04-27T11:48:42.273Z,101490.52
2018-04-27T11:51:10.689Z,101489.47
2018-04-27T11:53:40.003Z,101488.45
2018-04-27T11:56:08.390Z,101482.28
2018-04-27T11:58:38.013Z,101486.30
2018-04-27T12:01:06.697Z,101483.05
2018-04-27T12:03:36.051Z,101477.48
2018-04-27T12:06:04.408Z,101482.42
2018-04-27T12:08:32.904Z,101481.55
2018-04-27T12:11:01.307Z,101484.30
2018-04-27T12:13:30.034Z,101481.45
2018-04-27T12:16:00.841Z,101480.27
2018-04-27T12:18:29.220Z,101477.87
2018-04-27T12:20:57.662Z,101484.08
2018-04-27T12:23:26.422Z,101483.12
2018-04-27T12:25:55.077Z,101481.30
2018-04-27T12:28:24.345Z,101481.90
2018-04-27T12:30:52.798Z,101479.37
2018-04-27T12:33:22.064Z,101475.80
2018-04-27T12:35:51.222Z,101474.64
2018-04-27T12:38:20.373Z,101484.52
2018-04-27T12:40:49.285Z,101480.94
2018-04-27T12:43:20.306Z,101480.99
2018-04-27T12:45:48.675Z,101479.45
2018-04-27T12:48:17.031Z,101475.53
2018-04-27T12:50:46.593Z,101472.71
2018-04-27T12:53:14.985Z,101462.48
2018-04-27T12:55:43.356Z,101462.23
2018-04-27T12:58:12.009Z,101460.30
2018-04-27T13:00:40.950Z,101461.16
2018-04-27T13:03:09.344Z,101463.24
2018-04-27T13:05:38.864Z,101462.70
2018-04-27T13:08:07.327Z,101458.92
2018-04-27T13:10:36.003Z,101452.86
2018-04-27T13:13:04.441Z,101447.36
2018-04-27T13:15:32.816Z,101447.08
2018-04-27T13:18:07.268Z,101446.58
2018-04-27T13:20:35.660Z,101436.23
2018-04-27T13:23:04.032Z,101431.98
2018-04-27T13:25:32.682Z,101423.45
2018-04-27T13:28:01.050Z,101436.72
2018-04-27T13:30:29.419Z,101432.09
2018-04-27T13:32:58.208Z,101437.18
2018-04-27T13:35:27.899Z,101434.77
2018-04-27T13:37:56.491Z,101435.36
2018-04-27T13:40:25.360Z,101437.30
2018-04-27T13:42:54.049Z,101429.28
2018-04-27T13:45:23.271Z,101429.58
2018-04-27T13:47:51.920Z,101425.61
2018-04-27T13:50:20.327Z,101425.56
2018-04-27T13:52:49.080Z,101431.27
2018-04-27T13:55:20.109Z,101429.13
2018-04-27T13:57:48.494Z,101434.52
2018-04-27T14:00:17.025Z,101430.41
2018-04-27T14:02:45.881Z,101427.57
2018-04-27T14:05:14.295Z,101431.11
2018-04-27T14:07:43.940Z,101427.61
2018-04-27T14:10:12.362Z,101429.41
2018-04-27T14:12:41.019Z,101421.83
2018-04-27T14:15:09.615Z,101416.09
2018-04-27T14:17:38.656Z,101422.33
2018-04-27T14:20:07.101Z,101425.65
2018-04-27T14:22:35.660Z,101422.36
2018-04-27T14:25:05.658Z,101422.84
2018-04-27T14:27:34.120Z,101422.20
2018-04-27T14:30:02.496Z,101415.17
2018-04-27T14:32:31.115Z,101410.80
2018-04-27T14:35:01.912Z,101408.96
2018-04-27T14:37:30.714Z,101411.05
2018-04-27T14:39:59.274Z,101412.27
2018-04-27T14:42:28.001Z,101400.83
2018-04-27T14:44:56.435Z,101406.31
2018-04-27T14:47:24.796Z,101407.97
2018-04-27T14:49:53.232Z,101407.70
2018-04-27T14:52:22.127Z,101406.93
2018-04-27T14:54:50.908Z,101402.48
2018-04-27T14:57:19.261Z,101407.48
2018-04-27T14:59:47.655Z,101411.31
2018-04-27T15:02:16.007Z,101412.34
2018-04-27T15:04:44.364Z,101407.80
2018-04-27T15:07:13.328Z,101406.93
2018-04-27T15:09:41.685Z,101408.97
2018-04-27T15:12:10.435Z,101409.87
2018-04-27T15:14:39.280Z,101401.30
2018-04-27T15:17:07.956Z,101416.45
2018-04-27T15:19:37.523Z,101412.75
2018-04-27T15:22:06.292Z,101410.56
2018-04-27T15:24:34.923Z,101413.91
2018-04-27T15:27:03.412Z,101414.91
2018-04-27T15:29:32.046Z,101408.34
2018-04-27T15:32:00.826Z,101410.98
2018-04-27T15:34:30.357Z,101417.55
2018-04-27T15:36:58.912Z,101408.55
2018-04-27T15:39:27.926Z,101412.72
2018-04-27T15:41:56.621Z,101410.20
2018-04-27T15:44:25.010Z,101417.41
2018-04-27T15:46:53.818Z,101413.98
2018-04-27T15:49:24.497Z,101415.86
2018-04-27T15:51:53.358Z,101413.02
2018-04-27T15:54:22.190Z,101414.36
2018-04-27T15:56:51.629Z,101418.64
2018-04-27T15:59:20.129Z,101415.84
2018-04-27T16:01:48.865Z,101424.67
2018-04-27T16:04:17.516Z,101418.42
2018-04-27T16:06:45.883Z,101416.40
2018-04-27T16:09:15.482Z,101410.91
2018-04-27T16:11:45.220Z,101408.23
2018-04-27T16:14:13.759Z,101413.68
2018-04-27T16:16:42.527Z,101423.43
2018-04-27T16:19:10.905Z,101417.03
2018-04-27T16:21:39.781Z,101426.28
2018-04-27T16:24:08.971Z,101423.01
2018-04-27T16:26:37.788Z,101422.09
2018-04-27T16:29:06.308Z,101434.18
2018-04-27T16:31:34.683Z,101433.73
2018-04-27T16:34:03.275Z,101431.60
2018-04-27T16:36:31.890Z,101430.95
2018-04-27T16:39:01.089Z,101430.58
2018-04-27T16:41:31.459Z,101431.21
2018-04-27T16:43:59.944Z,101427.60
2018-04-27T16:46:28.629Z,101424.41
2018-04-27T16:48:56.987Z,101430.89
2018-04-27T16:51:25.523Z,101433.90
2018-04-27T16:53:54.642Z,101430.21
2018-04-27T16:56:23.374Z,101437.02
2018-04-27T16:58:51.771Z,101442.22
2018-04-27T17:01:20.166Z,101440.59
2018-04-27T17:03:48.548Z,101439.38
2018-04-27T17:06:16.952Z,101441.77
2018-04-27T17:08:45.770Z,101448.02
2018-04-27T17:11:15.120Z,101445.26
2018-04-27T17:13:43.727Z,101448.56
2018-04-27T17:16:12.154Z,101448.03
2018-04-27T17:18:40.983Z,101457.20
2018-04-27T17:21:09.734Z,101459.84
2018-04-27T17:23:38.105Z,101464.42
2018-04-27T17:26:06.499Z,101462.02
2018-04-27T17:28:35.409Z,101460.37
2018-04-27T17:31:04.015Z,101463.55
2018-04-27T17:33:32.388Z,101466.41
2018-04-27T17:36:00.837Z,101463.64
2018-04-27T17:38:29.266Z,101466.31
2018-04-27T17:40:57.638Z,101465.05
2018-04-27T17:43:26.424Z,101472.80
2018-04-27T17:45:54.849Z,101473.83
2018-04-27T17:48:24.173Z,101471.88
2018-04-27T17:50:54.604Z,101476.20
2018-04-27T17:53:23.501Z,101472.80
2018-04-27T17:55:51.902Z,101469.86
2018-04-27T17:58:23.763Z,101483.91
2018-04-27T18:00:52.590Z,101487.37
2018-04-27T18:03:21.256Z,101488.77
2018-04-27T18:05:56.776Z,101489.02
2018-04-27T18:08:25.410Z,101487.89
2018-04-27T18:10:54.243Z,101499.61
2018-04-27T18:13:22.638Z,101493.85
2018-04-27T18:15:51.258Z,101491.45
2018-04-27T18:18:19.794Z,101492.29
2018-04-27T18:20:49.295Z,101490.58
2018-04-27T18:23:17.832Z,101494.83
2018-04-27T18:25:48.567Z,101499.52
2018-04-27T18:28:17.161Z,101500.39
2018-04-27T18:30:45.937Z,101496.27
2018-04-27T18:33:15.954Z,101497.31
2018-04-27T18:35:47.951Z,101492.35
2018-04-27T18:38:19.646Z,101493.68
2018-04-27T18:40:48.377Z,101494.31
2018-04-27T18:43:17.176Z,101496.58
2018-04-27T18:45:49.408Z,101487.44
2018-04-27T18:48:18.998Z,101484.63
2018-04-27T18:50:49.698Z,101483.98
2018-04-27T18:53:18.081Z,101488.40
2018-04-27T18:55:46.522Z,101486.98
2018-04-27T18:58:15.321Z,101488.02
2018-04-27T19:00:44.010Z,101488.55
2018-04-27T19:03:12.796Z,101491.25
2018-04-27T19:05:41.101Z,101485.56
2018-04-27T19:08:10.113Z,101491.25
2018-04-27T19:10:40.289Z,101491.34
2018-04-27T19:13:11.345Z,101488.52
2018-04-27T19:15:41.835Z,101483.66
2018-04-27T19:18:10.314Z,101487.16
2018-04-27T19:20:39.693Z,101480.58
2018-04-27T19:23:08.877Z,101477.45
2018-04-27T19:25:43.111Z,101477.17
2018-04-27T19:28:11.537Z,101479.33
2018-04-27T19:30:40.036Z,101476.80
2018-04-27T19:33:09.723Z,101473.58
2018-04-27T19:35:38.717Z,101475.41
2018-04-27T19:38:07.459Z,101472.19
2018-04-27T19:40:38.879Z,101474.36
2018-04-27T19:43:07.887Z,101470.56
2018-04-27T19:45:36.564Z,101478.69
2018-04-27T19:48:05.307Z,101474.22
2018-04-27T19:50:34.229Z,101479.73
2018-04-27T19:53:03.219Z,101467.95
2018-04-27T19:55:31.611Z,101467.13
2018-04-27T19:57:59.995Z,101470.16
2018-04-27T20:00:34.015Z,101467.30
2018-04-27T20:03:02.556Z,101471.96
2018-04-27T20:05:31.546Z,101473.27
2018-04-27T20:08:00.306Z,101473.28
2018-04-27T20:10:33.701Z,101474.23
2018-04-27T20:13:02.380Z,101474.30
2018-04-27T20:15:37.568Z,101473.96
2018-04-27T20:18:14.951Z,101474.80
2018-04-27T20:20:44.877Z,101476.93
2018-04-27T20:23:14.513Z,101482.02
2018-04-27T20:25:43.105Z,101468.14
2018-04-27T20:28:11.667Z,101467.74
2018-04-27T20:30:40.416Z,101474.58
2018-04-27T20:33:15.117Z,101467.00
2018-04-27T20:35:43.577Z,101466.31
2018-04-27T20:38:16.499Z,101468.88
2018-04-27T20:40:44.900Z,101466.84
2018-04-27T20:43:15.967Z,101463.92
2018-04-27T20:45:44.557Z,101459.34
2018-04-27T20:48:14.771Z,101458.94
2018-04-27T20:50:58.486Z,101463.22
2018-04-27T20:53:28.542Z,101456.47
2018-04-27T20:56:02.877Z,101448.44
2018-04-27T20:58:31.468Z,101452.66
2018-04-27T21:01:16.468Z,101444.31
2018-04-27T21:03:46.213Z,101442.23
2018-04-27T21:06:16.089Z,101441.49
2018-04-27T21:08:46.076Z,101441.22
2018-04-27T21:11:14.482Z,101439.19
2018-04-27T21:13:42.932Z,101439.19
2018-04-27T21:18:56.251Z,101437.17
2018-04-27T21:21:25.659Z,101435.95
2018-04-27T21:23:55.062Z,101432.63
2018-04-27T21:26:35.280Z,101435.16
2018-04-27T21:29:03.770Z,101431.38
2018-04-27T21:31:34.178Z,101427.17
2018-04-27T21:34:03.239Z,101430.95
2018-04-27T21:36:33.287Z,101434.38
2018-04-27T21:39:07.209Z,101435.33
2018-04-27T21:44:38.316Z,101425.73
2018-04-27T21:47:26.710Z,101423.68
2018-04-27T21:49:55.326Z,101427.59
2018-04-27T21:52:27.603Z,101426.41
2018-04-27T21:54:57.402Z,101423.91
2018-04-27T21:57:39.236Z,101427.36
2018-04-27T22:00:29.088Z,101423.57
2018-04-27T22:03:12.404Z,101420.69
2018-04-27T22:05:47.345Z,101415.65
2018-04-27T22:08:17.649Z,101419.50
2018-04-27T22:10:47.079Z,101423.71
2018-04-27T22:13:18.449Z,101419.91
2018-04-27T22:15:47.435Z,101419.52
2018-04-27T22:18:17.571Z,101419.16
2018-04-27T22:20:50.730Z,101421.69
2018-04-27T22:23:36.708Z,101421.22
2018-04-27T22:26:05.291Z,101414.05
2018-04-27T22:28:35.510Z,101415.71
2018-04-27T22:31:04.628Z,101409.36
2018-04-27T22:33:33.804Z,101408.90
2018-04-27T22:36:22.401Z,101413.51
2018-04-27T22:38:50.990Z,101414.44
2018-04-27T22:41:19.365Z,101414.48
2018-04-27T22:44:03.771Z,101417.05
2018-04-27T22:46:32.404Z,101415.39
2018-04-27T22:49:03.483Z,101412.02
2018-04-27T22:51:38.557Z,101397.26
2018-04-27T22:57:12.965Z,101401.11
2018-04-27T22:59:42.680Z,101408.70
2018-04-27T23:02:24.770Z,101408.72
2018-04-27T23:04:58.734Z,101399.43
2018-04-27T23:07:31.246Z,101404.06
2018-04-27T23:09:59.616Z,101402.32
2018-04-27T23:12:29.984Z,101402.23
2018-04-27T23:14:59.255Z,101399.59
2018-04-27T23:17:28.504Z,101395.72
2018-04-27T23:20:08.815Z,101391.38
2018-04-27T23:22:42.715Z,101396.77
2018-04-27T23:25:18.926Z,101389.52
2018-04-27T23:27:47.403Z,101393.74
2018-04-27T23:30:19.238Z,101384.02
2018-04-27T23:32:47.663Z,101386.58
2018-04-27T23:35:16.277Z,101384.19
2018-04-27T23:37:44.718Z,101379.98
2018-04-27T23:40:13.986Z,101384.20
2018-04-27T23:42:42.770Z,101382.00
2018-04-27T23:45:11.142Z,101375.25
2018-04-27T23:47:39.523Z,101375.33
2018-04-27T23:50:08.056Z,101367.34
2018-04-27T23:52:37.103Z,101366.67
2018-04-27T23:55:05.475Z,101366.24
2018-04-27T23:57:35.624Z,101367.48
